createdAt,value
2023-05-14T00:00:28.043Z,1.50
2023-05-14T00:01:28.170Z,1.70
2023-05-14T00:02:28.376Z,1.80
2023-05-14T00:03:28.214Z,1.70
2023-05-14T00:04:28.121Z,1.60
2023-05-14T00:05:28.098Z,1.70
2023-05-14T00:06:28.106Z,1.70
2023-05-14T00:07:28.125Z,1.60
2023-05-14T00:08:28.241Z,1.60
2023-05-14T00:09:28.159Z,1.70
2023-05-14T00:10:28.366Z,1.60
2023-05-14T00:11:28.213Z,1.50
2023-05-14T00:12:28.195Z,1.50
2023-05-14T00:13:28.210Z,1.50
2023-05-14T00:14:28.224Z,1.60
2023-05-14T00:15:28.236Z,1.80
2023-05-14T00:16:28.309Z,1.60
2023-05-14T00:17:28.282Z,1.70
2023-05-14T00:18:28.274Z,1.70
2023-05-14T00:19:28.281Z,1.60
2023-05-14T00:20:28.396Z,1.60
2023-05-14T00:21:28.318Z,1.60
2023-05-14T00:22:28.310Z,1.50
2023-05-14T00:23:28.327Z,1.50
2023-05-14T00:24:28.342Z,1.40
2023-05-14T00:25:28.357Z,1.50
2023-05-14T00:26:28.469Z,1.60
2023-05-14T00:27:28.387Z,1.60
2023-05-14T00:28:28.399Z,1.70
2023-05-14T00:29:28.408Z,1.60
2023-05-14T00:30:28.418Z,1.60
2023-05-14T00:31:28.605Z,1.50
2023-05-14T00:32:28.537Z,1.70
2023-05-14T00:33:28.481Z,1.50
2023-05-14T00:34:28.477Z,1.60
2023-05-14T00:35:28.511Z,1.60
2023-05-14T00:36:28.500Z,1.60
2023-05-14T00:37:28.613Z,1.60
2023-05-14T00:38:28.526Z,1.70
2023-05-14T00:39:28.531Z,1.50
2023-05-14T00:40:28.548Z,1.60
2023-05-14T00:41:28.553Z,1.50
2023-05-14T00:42:28.575Z,1.60
2023-05-14T00:43:28.677Z,1.50
2023-05-14T00:44:28.624Z,1.80
2023-05-14T00:45:28.610Z,1.60
2023-05-14T00:46:28.702Z,1.40
2023-05-14T00:47:28.671Z,1.50
2023-05-14T00:48:28.644Z,1.60
2023-05-14T00:49:28.783Z,1.40
2023-05-14T00:50:28.690Z,1.50
2023-05-14T00:51:28.685Z,1.60
2023-05-14T00:52:28.708Z,1.60
2023-05-14T00:53:28.704Z,1.30
2023-05-14T00:54:28.720Z,1.50
2023-05-14T00:55:28.837Z,1.50
2023-05-14T00:56:28.753Z,1.50
2023-05-14T00:57:28.759Z,1.40
2023-05-14T00:58:28.780Z,1.50
2023-05-14T00:59:28.799Z,1.50
2023-05-14T01:00:28.803Z,1.40
2023-05-14T01:01:28.921Z,1.50
2023-05-14T01:02:28.900Z,1.40
2023-05-14T01:03:28.979Z,1.70
2023-05-14T01:04:28.849Z,1.70
2023-05-14T01:05:28.888Z,1.60
2023-05-14T01:06:28.880Z,1.40
2023-05-14T01:07:28.986Z,1.50
2023-05-14T01:08:28.895Z,1.40
2023-05-14T01:09:28.917Z,1.50
2023-05-14T01:10:28.944Z,1.50
2023-05-14T01:11:28.944Z,1.40
2023-05-14T01:12:28.957Z,1.60
2023-05-14T01:13:28.962Z,1.40
2023-05-14T01:14:28.979Z,1.50
2023-05-14T01:15:29.018Z,1.50
2023-05-14T01:16:29.104Z,1.60
2023-05-14T01:17:29.027Z,1.40
2023-05-14T01:18:29.091Z,1.40
2023-05-14T01:19:29.139Z,1.50
2023-05-14T01:20:29.057Z,1.50
2023-05-14T01:21:29.093Z,1.50
2023-05-14T01:22:29.077Z,1.60
2023-05-14T01:23:29.088Z,1.60
2023-05-14T01:24:29.101Z,1.50
2023-05-14T01:25:29.244Z,1.40
2023-05-14T01:26:29.133Z,1.40
2023-05-14T01:27:29.135Z,1.40
2023-05-14T01:28:29.161Z,1.40
2023-05-14T01:29:29.174Z,1.40
2023-05-14T01:30:29.187Z,1.40
2023-05-14T01:31:29.336Z,1.30
2023-05-14T01:32:29.272Z,1.40
2023-05-14T01:33:29.237Z,1.60
2023-05-14T01:34:29.228Z,1.40
2023-05-14T01:35:29.243Z,1.30
2023-05-14T01:36:29.267Z,1.40
2023-05-14T01:37:29.384Z,1.30
2023-05-14T01:38:29.276Z,1.40
2023-05-14T01:39:29.298Z,1.40
2023-05-14T01:40:29.308Z,1.50
2023-05-14T01:41:29.323Z,1.40
2023-05-14T01:42:29.333Z,1.50
2023-05-14T01:43:29.590Z,1.40
2023-05-14T01:44:29.360Z,1.40
2023-05-14T01:45:29.374Z,1.50
2023-05-14T01:46:29.462Z,1.50
2023-05-14T01:47:29.434Z,1.60
2023-05-14T01:48:29.402Z,1.40
2023-05-14T01:49:29.547Z,1.50
2023-05-14T01:50:29.432Z,1.50
2023-05-14T01:51:29.443Z,1.50
2023-05-14T01:52:29.453Z,1.50
2023-05-14T01:53:29.515Z,1.30
2023-05-14T01:54:29.515Z,1.40
2023-05-14T01:55:29.587Z,1.50
2023-05-14T01:56:29.546Z,1.50
2023-05-14T01:57:29.532Z,1.50
2023-05-14T01:58:29.537Z,1.30
2023-05-14T01:59:29.539Z,1.50
2023-05-14T02:00:29.655Z,1.50
2023-05-14T02:01:29.619Z,1.30
2023-05-14T02:02:29.651Z,1.30
2023-05-14T02:03:29.602Z,1.40
2023-05-14T02:04:29.612Z,1.40
2023-05-14T02:05:29.637Z,1.50
2023-05-14T02:06:29.731Z,1.30
2023-05-14T02:07:29.645Z,1.50
2023-05-14T02:08:29.659Z,1.20
2023-05-14T02:09:29.771Z,1.30
2023-05-14T02:10:29.684Z,1.30
2023-05-14T02:11:29.694Z,1.30
2023-05-14T02:12:29.816Z,1.30
2023-05-14T02:13:29.726Z,1.20
2023-05-14T02:14:29.741Z,1.40
2023-05-14T02:15:29.745Z,1.40
2023-05-14T02:16:29.837Z,1.30
2023-05-14T02:17:29.790Z,1.40
2023-05-14T02:18:29.932Z,1.30
2023-05-14T02:19:29.803Z,1.40
2023-05-14T02:20:29.816Z,1.40
2023-05-14T02:21:29.828Z,1.30
2023-05-14T02:22:29.840Z,1.40
2023-05-14T02:23:40.361Z,1.30
2023-05-14T02:24:29.867Z,1.20
2023-05-14T02:25:29.905Z,1.20
2023-05-14T02:26:29.901Z,1.50
2023-05-14T02:27:29.908Z,1.20
2023-05-14T02:28:29.914Z,1.30
2023-05-14T02:29:30.042Z,1.30
2023-05-14T02:30:29.943Z,1.30
2023-05-14T02:31:29.996Z,1.30
2023-05-14T02:32:30.036Z,1.30
2023-05-14T02:33:30.079Z,1.30
2023-05-14T02:34:29.984Z,1.30
2023-05-14T02:35:30.110Z,1.30
2023-05-14T02:36:30.022Z,1.20
2023-05-14T02:37:30.027Z,1.30
2023-05-14T02:38:30.038Z,1.30
2023-05-14T02:39:30.052Z,1.20
2023-05-14T02:40:30.069Z,1.10
2023-05-14T02:41:30.197Z,1.20
2023-05-14T02:42:30.096Z,1.10
2023-05-14T02:43:30.137Z,1.10
2023-05-14T02:44:30.126Z,1.30
2023-05-14T02:45:30.127Z,1.30
2023-05-14T02:46:30.190Z,1.30
2023-05-14T02:47:30.271Z,1.20
2023-05-14T02:48:30.183Z,1.20
2023-05-14T02:49:30.186Z,1.20
2023-05-14T02:50:30.191Z,1.20
2023-05-14T02:51:30.202Z,1.40
2023-05-14T02:52:30.222Z,1.30
2023-05-14T02:53:30.327Z,0.90
2023-05-14T02:54:30.248Z,1.40
2023-05-14T02:55:30.262Z,1.30
2023-05-14T02:56:30.274Z,1.30
2023-05-14T02:57:30.343Z,1.20
2023-05-14T02:58:30.304Z,1.10
2023-05-14T02:59:30.423Z,1.30
2023-05-14T03:00:30.320Z,1.30
2023-05-14T03:01:30.382Z,1.50
2023-05-14T03:02:30.480Z,1.30
2023-05-14T03:03:30.397Z,1.20
2023-05-14T03:04:30.476Z,1.30
2023-05-14T03:05:30.392Z,1.10
2023-05-14T03:06:30.396Z,1.30
2023-05-14T03:07:30.410Z,1.20
2023-05-14T03:08:30.419Z,1.30
2023-05-14T03:09:30.439Z,1.20
2023-05-14T03:10:30.550Z,1.30
2023-05-14T03:11:30.469Z,1.40
2023-05-14T03:12:30.482Z,1.30
2023-05-14T03:13:30.513Z,1.10
2023-05-14T03:14:30.495Z,1.40
2023-05-14T03:15:30.608Z,1.30
2023-05-14T03:16:30.542Z,1.30
2023-05-14T03:17:30.591Z,1.40
2023-05-14T03:18:30.592Z,1.20
2023-05-14T03:19:30.559Z,1.40
2023-05-14T03:20:30.669Z,1.50
2023-05-14T03:21:30.582Z,1.10
2023-05-14T03:22:30.602Z,1.30
2023-05-14T03:23:30.626Z,1.10
2023-05-14T03:24:30.619Z,1.10
2023-05-14T03:25:30.649Z,1.30
2023-05-14T03:26:30.746Z,1.40
2023-05-14T03:27:30.665Z,1.40
2023-05-14T03:28:30.684Z,1.30
2023-05-14T03:29:30.705Z,1.00
2023-05-14T03:30:30.714Z,1.40
2023-05-14T03:31:30.817Z,1.40
2023-05-14T03:32:30.739Z,1.30
2023-05-14T03:33:30.737Z,1.50
2023-05-14T03:34:30.752Z,1.10
2023-05-14T03:35:30.769Z,1.00
2023-05-14T03:36:30.771Z,1.20
2023-05-14T03:37:30.898Z,1.20
2023-05-14T03:38:30.801Z,1.30
2023-05-14T03:39:30.816Z,1.30
2023-05-14T03:40:30.855Z,1.20
2023-05-14T03:41:30.835Z,1.10
2023-05-14T03:42:30.851Z,1.20
2023-05-14T03:43:30.981Z,1.20
2023-05-14T03:44:30.878Z,1.20
2023-05-14T03:45:30.907Z,1.20
2023-05-14T03:46:30.900Z,1.30
2023-05-14T03:47:30.965Z,1.20
2023-05-14T03:48:31.003Z,1.50
2023-05-14T03:49:31.046Z,1.40
2023-05-14T03:50:30.950Z,1.30
2023-05-14T03:51:30.968Z,1.20
2023-05-14T03:52:30.972Z,1.50
2023-05-14T03:53:30.993Z,1.30
2023-05-14T03:54:31.016Z,1.20
2023-05-14T03:55:31.121Z,1.40
2023-05-14T03:56:31.022Z,1.20
2023-05-14T03:57:31.046Z,1.40
2023-05-14T03:58:31.056Z,1.10
2023-05-14T03:59:31.067Z,1.10
2023-05-14T04:00:31.079Z,1.30
2023-05-14T04:01:31.202Z,1.30
2023-05-14T04:02:31.190Z,1.30
2023-05-14T04:03:31.364Z,1.30
2023-05-14T04:04:31.164Z,1.30
2023-05-14T04:05:31.140Z,1.20
2023-05-14T04:06:31.151Z,1.10
2023-05-14T04:07:31.262Z,1.30
2023-05-14T04:08:31.173Z,1.20
2023-05-14T04:09:31.193Z,1.50
2023-05-14T04:10:31.205Z,1.50
2023-05-14T04:11:31.218Z,1.50
2023-05-14T04:12:31.223Z,1.40
2023-05-14T04:13:31.239Z,1.40
2023-05-14T04:14:31.255Z,1.30
2023-05-14T04:15:31.290Z,1.40
2023-05-14T04:16:31.307Z,1.40
2023-05-14T04:17:31.332Z,1.30
2023-05-14T04:18:31.332Z,1.60
2023-05-14T04:19:31.325Z,1.30
2023-05-14T04:20:31.323Z,1.40
2023-05-14T04:21:31.344Z,1.20
2023-05-14T04:22:31.370Z,1.30
2023-05-14T04:23:31.485Z,1.20
2023-05-14T04:24:31.392Z,1.30
2023-05-14T04:25:31.393Z,1.40
2023-05-14T04:26:31.410Z,1.40
2023-05-14T04:27:31.415Z,1.70
2023-05-14T04:28:31.524Z,1.50
2023-05-14T04:29:31.445Z,1.40
2023-05-14T04:30:31.454Z,1.40
2023-05-14T04:31:31.483Z,1.50
2023-05-14T04:32:31.568Z,1.50
2023-05-14T04:33:31.516Z,1.50
2023-05-14T04:34:31.595Z,1.40
2023-05-14T04:35:31.509Z,1.60
2023-05-14T04:36:31.528Z,1.60
2023-05-14T04:37:31.541Z,1.40
2023-05-14T04:38:31.553Z,1.50
2023-05-14T04:39:31.666Z,1.60
2023-05-14T04:40:31.568Z,1.60
2023-05-14T04:41:31.591Z,1.70
2023-05-14T04:42:31.595Z,1.60
2023-05-14T04:43:31.608Z,1.50
2023-05-14T04:44:31.734Z,1.70
2023-05-14T04:45:34.046Z,1.60
2023-05-14T04:46:31.768Z,1.60
2023-05-14T04:47:31.705Z,1.50
2023-05-14T04:48:31.669Z,1.60
2023-05-14T04:49:31.711Z,1.60
2023-05-14T04:50:31.825Z,1.60
2023-05-14T04:51:31.721Z,1.60
2023-05-14T04:52:31.735Z,1.60
2023-05-14T04:53:31.728Z,1.60
2023-05-14T04:54:31.791Z,1.60
2023-05-14T04:55:31.872Z,1.50
2023-05-14T04:56:31.777Z,1.70
2023-05-14T04:57:31.787Z,1.50
2023-05-14T04:58:34.527Z,1.50
2023-05-14T04:59:31.815Z,1.70
2023-05-14T05:00:31.826Z,1.60
2023-05-14T05:01:32.052Z,1.70
2023-05-14T05:02:31.861Z,1.60
2023-05-14T05:03:31.880Z,1.60
2023-05-14T05:04:31.870Z,1.60
2023-05-14T05:05:31.916Z,1.70
2023-05-14T05:06:31.909Z,1.60
2023-05-14T05:07:31.938Z,1.70
2023-05-14T05:08:31.925Z,1.80
2023-05-14T05:09:31.948Z,1.40
2023-05-14T05:10:31.952Z,1.80
2023-05-14T05:11:31.981Z,1.80
2023-05-14T05:12:32.085Z,1.70
2023-05-14T05:13:31.991Z,1.70
2023-05-14T05:14:32.003Z,1.70
2023-05-14T05:15:32.020Z,1.90
2023-05-14T05:16:32.155Z,1.70
2023-05-14T05:17:32.071Z,1.80
2023-05-14T05:18:32.198Z,1.60
2023-05-14T05:19:42.560Z,1.90
2023-05-14T05:20:32.083Z,1.90
2023-05-14T05:21:32.115Z,1.70
2023-05-14T05:22:32.120Z,1.80
2023-05-14T05:23:32.115Z,1.90
2023-05-14T05:24:32.226Z,1.80
2023-05-14T05:25:32.161Z,1.80
2023-05-14T05:26:32.161Z,1.80
2023-05-14T05:27:32.166Z,1.80
2023-05-14T05:28:32.184Z,1.70
2023-05-14T05:29:32.193Z,1.90
2023-05-14T05:30:32.311Z,1.90
2023-05-14T05:31:32.238Z,1.90
2023-05-14T05:32:32.245Z,1.90
2023-05-14T05:33:32.258Z,2.20
2023-05-14T05:34:32.267Z,2.10
2023-05-14T05:35:32.369Z,2.00
2023-05-14T05:36:32.288Z,1.80
2023-05-14T05:37:32.309Z,2.10
2023-05-14T05:38:32.308Z,2.00
2023-05-14T05:39:32.313Z,2.00
2023-05-14T05:40:32.334Z,2.00
2023-05-14T05:41:32.336Z,2.10
2023-05-14T05:42:32.356Z,2.20
2023-05-14T05:43:32.363Z,2.20
2023-05-14T05:44:32.380Z,2.20
2023-05-14T05:45:32.389Z,2.10
2023-05-14T05:46:32.568Z,2.30
2023-05-14T05:47:32.455Z,2.20
2023-05-14T05:48:32.432Z,2.00
2023-05-14T05:49:32.435Z,2.20
2023-05-14T05:50:32.460Z,2.10
2023-05-14T05:51:32.469Z,2.20
2023-05-14T05:52:32.493Z,2.30
2023-05-14T05:53:32.531Z,2.10
2023-05-14T05:54:32.526Z,2.20
2023-05-14T05:55:32.512Z,2.30
2023-05-14T05:56:32.530Z,2.10
2023-05-14T05:57:32.561Z,2.20
2023-05-14T05:58:32.647Z,2.20
2023-05-14T05:59:32.575Z,2.40
2023-05-14T06:00:32.573Z,2.10
2023-05-14T06:01:32.587Z,2.40
2023-05-14T06:02:32.684Z,2.50
2023-05-14T06:03:32.612Z,2.30
2023-05-14T06:04:32.729Z,2.20
2023-05-14T06:05:32.685Z,2.20
2023-05-14T06:06:32.692Z,2.40
2023-05-14T06:07:32.663Z,2.40
2023-05-14T06:08:32.679Z,2.30
2023-05-14T06:09:32.814Z,2.30
2023-05-14T06:10:32.706Z,2.50
2023-05-14T06:11:32.717Z,2.30
2023-05-14T06:12:32.726Z,2.30
2023-05-14T06:13:32.744Z,2.50
2023-05-14T06:14:32.756Z,2.20
2023-05-14T06:15:32.889Z,2.50
2023-05-14T06:16:32.832Z,2.30
2023-05-14T06:17:32.845Z,2.20
2023-05-14T06:18:32.828Z,2.40
2023-05-14T06:19:32.822Z,2.30
2023-05-14T06:20:32.925Z,2.60
2023-05-14T06:21:32.845Z,2.30
2023-05-14T06:22:32.848Z,2.60
2023-05-14T06:23:32.877Z,2.60
2023-05-14T06:24:32.881Z,2.50
2023-05-14T06:25:32.913Z,2.40
2023-05-14T06:26:32.899Z,2.40
2023-05-14T06:27:32.921Z,2.50
2023-05-14T06:28:32.945Z,2.20
2023-05-14T06:29:32.947Z,2.50
2023-05-14T06:30:32.955Z,2.40
2023-05-14T06:31:33.019Z,2.50
2023-05-14T06:32:33.083Z,2.40
2023-05-14T06:33:32.997Z,2.40
2023-05-14T06:34:33.003Z,2.40
2023-05-14T06:35:33.010Z,2.40
2023-05-14T06:36:33.027Z,2.70
2023-05-14T06:37:33.038Z,2.50
2023-05-14T06:38:33.071Z,2.40
2023-05-14T06:39:33.062Z,2.70
2023-05-14T06:40:33.080Z,2.30
2023-05-14T06:41:33.113Z,2.70
2023-05-14T06:42:33.108Z,2.60
2023-05-14T06:43:33.220Z,2.60
2023-05-14T06:44:33.126Z,2.50
2023-05-14T06:45:33.353Z,2.70
2023-05-14T06:46:33.156Z,2.60
2023-05-14T06:47:33.196Z,2.30
2023-05-14T06:48:33.238Z,2.40
2023-05-14T06:49:33.305Z,2.40
2023-05-14T06:50:33.193Z,2.50
2023-05-14T06:51:33.218Z,2.60
2023-05-14T06:52:33.218Z,2.60
2023-05-14T06:53:33.239Z,2.80
2023-05-14T06:54:33.455Z,2.60
2023-05-14T06:55:33.272Z,2.70
2023-05-14T06:56:33.275Z,2.70
2023-05-14T06:57:33.313Z,2.60
2023-05-14T06:58:33.302Z,2.50
2023-05-14T06:59:33.340Z,2.50
2023-05-14T07:00:33.328Z,3.00
2023-05-14T07:01:33.397Z,2.70
2023-05-14T07:02:33.375Z,2.70
2023-05-14T07:03:33.364Z,2.70
2023-05-14T07:04:33.392Z,2.40
2023-05-14T07:05:33.392Z,2.70
2023-05-14T07:06:33.406Z,2.60
2023-05-14T07:07:33.511Z,2.50
2023-05-14T07:08:33.426Z,2.60
2023-05-14T07:09:33.437Z,2.40
2023-05-14T07:10:33.454Z,2.70
2023-05-14T07:11:33.461Z,2.50
2023-05-14T07:12:33.568Z,2.70
2023-05-14T07:13:33.506Z,2.50
2023-05-14T07:14:33.496Z,2.70
2023-05-14T07:15:33.506Z,2.70
2023-05-14T07:16:33.544Z,2.70
2023-05-14T07:17:33.594Z,2.90
2023-05-14T07:18:33.710Z,2.60
2023-05-14T07:19:33.556Z,2.50
2023-05-14T07:20:33.573Z,2.70
2023-05-14T07:21:33.586Z,2.40
2023-05-14T07:22:33.600Z,2.70
2023-05-14T07:23:33.705Z,2.50
2023-05-14T07:24:33.617Z,2.60
2023-05-14T07:25:33.640Z,2.50
2023-05-14T07:26:33.648Z,2.60
2023-05-14T07:27:33.661Z,2.60
2023-05-14T07:28:33.673Z,2.70
2023-05-14T07:29:33.804Z,2.60
2023-05-14T07:30:33.698Z,2.70
2023-05-14T07:31:33.734Z,2.70
2023-05-14T07:32:33.788Z,2.90
2023-05-14T07:33:33.739Z,2.60
2023-05-14T07:34:33.748Z,2.60
2023-05-14T07:35:33.768Z,2.60
2023-05-14T07:36:33.769Z,2.60
2023-05-14T07:37:33.785Z,2.70
2023-05-14T07:38:33.789Z,2.60
2023-05-14T07:39:33.802Z,2.70
2023-05-14T07:40:33.915Z,2.40
2023-05-14T07:41:33.842Z,2.60
2023-05-14T07:42:36.925Z,2.80
2023-05-14T07:43:33.873Z,2.40
2023-05-14T07:44:33.872Z,2.80
2023-05-14T07:45:33.927Z,2.40
2023-05-14T07:46:34.039Z,2.90
2023-05-14T07:47:33.966Z,2.50
2023-05-14T07:48:33.945Z,2.60
2023-05-14T07:49:33.929Z,2.40
2023-05-14T07:50:33.938Z,2.50
2023-05-14T07:51:33.957Z,2.70
2023-05-14T07:52:34.084Z,2.90
2023-05-14T07:53:33.976Z,2.50
2023-05-14T07:54:33.988Z,2.70
2023-05-14T07:55:34.009Z,2.60
2023-05-14T07:56:34.019Z,2.60
2023-05-14T07:57:34.128Z,2.50
2023-05-14T07:58:34.049Z,2.60
2023-05-14T07:59:34.052Z,2.50
2023-05-14T08:00:34.064Z,2.60
2023-05-14T08:01:34.098Z,2.50
2023-05-14T08:02:34.202Z,2.70
2023-05-14T08:03:34.269Z,2.50
2023-05-14T08:04:34.144Z,2.50
2023-05-14T08:05:34.124Z,2.70
2023-05-14T08:06:34.140Z,2.40
2023-05-14T08:07:34.148Z,2.50
2023-05-14T08:08:34.167Z,2.70
2023-05-14T08:09:34.279Z,2.40
2023-05-14T08:10:34.231Z,2.60
2023-05-14T08:11:34.221Z,2.30
2023-05-14T08:12:34.218Z,2.80
2023-05-14T08:13:34.224Z,2.80
2023-05-14T08:14:34.245Z,2.50
2023-05-14T08:15:34.248Z,2.20
2023-05-14T08:16:34.292Z,2.60
2023-05-14T08:17:34.374Z,2.50
2023-05-14T08:18:34.303Z,2.30
2023-05-14T08:19:34.306Z,2.50
2023-05-14T08:20:34.310Z,2.60
2023-05-14T08:21:34.329Z,2.70
2023-05-14T08:22:34.344Z,2.50
2023-05-14T08:23:34.362Z,2.40
2023-05-14T08:24:34.359Z,2.40
2023-05-14T08:25:34.382Z,2.40
2023-05-14T08:26:34.397Z,2.50
2023-05-14T08:27:34.509Z,2.50
2023-05-14T08:28:34.415Z,2.50
2023-05-14T08:29:34.424Z,2.50
2023-05-14T08:30:34.512Z,2.50
2023-05-14T08:31:34.456Z,2.40
2023-05-14T08:32:34.590Z,2.30
2023-05-14T08:33:34.500Z,2.40
2023-05-14T08:34:34.515Z,2.40
2023-05-14T08:35:34.511Z,2.20
2023-05-14T08:36:34.514Z,2.60
2023-05-14T08:37:34.537Z,2.60
2023-05-14T08:38:34.553Z,2.50
2023-05-14T08:39:34.549Z,2.50
2023-05-14T08:40:34.573Z,2.40
2023-05-14T08:41:34.571Z,2.50
2023-05-14T08:42:34.592Z,2.50
2023-05-14T08:43:34.708Z,2.70
2023-05-14T08:44:34.618Z,2.50
2023-05-14T08:45:34.628Z,2.50
2023-05-14T08:46:34.641Z,2.60
2023-05-14T08:47:34.696Z,2.40
2023-05-14T08:48:34.996Z,2.70
2023-05-14T08:49:34.689Z,2.40
2023-05-14T08:50:34.690Z,2.50
2023-05-14T08:51:34.704Z,2.40
2023-05-14T08:52:34.712Z,2.30
2023-05-14T08:53:34.724Z,2.40
2023-05-14T08:54:34.780Z,2.40
2023-05-14T08:55:34.752Z,2.50
2023-05-14T08:56:34.769Z,2.30
2023-05-14T08:57:34.765Z,2.40
2023-05-14T08:58:34.782Z,2.30
2023-05-14T08:59:34.890Z,2.50
2023-05-14T09:00:34.816Z,2.40
2023-05-14T09:01:34.861Z,2.60
2023-05-14T09:02:34.955Z,2.40
2023-05-14T09:03:34.912Z,2.40
2023-05-14T09:04:35.033Z,2.50
2023-05-14T09:05:34.993Z,2.30
2023-05-14T09:06:34.875Z,2.40
2023-05-14T09:07:34.890Z,2.50
2023-05-14T09:08:34.905Z,2.20
2023-05-14T09:09:34.923Z,2.40
2023-05-14T09:10:34.937Z,2.30
2023-05-14T09:11:35.052Z,2.50
2023-05-14T09:12:34.953Z,2.30
2023-05-14T09:13:34.960Z,2.40
2023-05-14T09:14:34.985Z,2.40
2023-05-14T09:15:34.995Z,2.30
2023-05-14T09:16:35.028Z,2.60
2023-05-14T09:17:35.167Z,2.40
2023-05-14T09:18:35.085Z,2.50
2023-05-14T09:19:35.044Z,2.30
2023-05-14T09:20:35.061Z,2.40
2023-05-14T09:21:35.078Z,2.60
2023-05-14T09:22:35.078Z,2.30
2023-05-14T09:23:35.099Z,2.10
2023-05-14T09:24:35.135Z,2.40
2023-05-14T09:25:35.113Z,2.40
2023-05-14T09:26:35.131Z,2.20
2023-05-14T09:27:35.153Z,2.70
2023-05-14T09:28:35.244Z,2.50
2023-05-14T09:29:35.156Z,2.50
2023-05-14T09:30:35.218Z,2.50
2023-05-14T09:31:35.258Z,2.40
2023-05-14T09:32:35.234Z,2.50
2023-05-14T09:33:35.223Z,2.30
2023-05-14T09:34:35.397Z,2.40
2023-05-14T09:35:35.231Z,2.50
2023-05-14T09:36:35.256Z,2.40
2023-05-14T09:37:35.276Z,2.20
2023-05-14T09:38:35.265Z,2.40
2023-05-14T09:39:35.290Z,2.50
2023-05-14T09:40:35.400Z,2.40
2023-05-14T09:41:35.311Z,2.40
2023-05-14T09:42:35.316Z,2.40
2023-05-14T09:43:35.331Z,2.40
2023-05-14T09:44:35.350Z,2.50
2023-05-14T09:45:35.365Z,2.20
2023-05-14T09:46:35.372Z,2.30
2023-05-14T09:47:35.454Z,2.50
2023-05-14T09:48:35.435Z,2.30
2023-05-14T09:49:35.414Z,2.40
2023-05-14T09:50:35.421Z,2.40
2023-05-14T09:51:35.426Z,2.40
2023-05-14T09:52:35.452Z,2.30
2023-05-14T09:53:35.487Z,2.20
2023-05-14T09:54:35.472Z,2.40
2023-05-14T09:55:35.483Z,2.10
2023-05-14T09:56:35.495Z,2.30
2023-05-14T09:57:35.648Z,2.40
2023-05-14T09:58:35.520Z,2.40
2023-05-14T09:59:35.534Z,2.40
2023-05-14T10:00:35.548Z,2.40
2023-05-14T10:01:35.610Z,2.40
2023-05-14T10:02:35.606Z,2.30
2023-05-14T10:03:35.572Z,2.40
2023-05-14T10:04:35.616Z,2.30
2023-05-14T10:05:35.604Z,2.30
2023-05-14T10:06:35.608Z,2.50
2023-05-14T10:07:35.729Z,2.40
2023-05-14T10:08:35.645Z,2.40
2023-05-14T10:09:35.666Z,2.50
2023-05-14T10:10:35.665Z,2.40
2023-05-14T10:11:35.687Z,2.30
2023-05-14T10:12:35.696Z,2.40
2023-05-14T10:13:35.802Z,2.20
2023-05-14T10:14:35.710Z,2.30
2023-05-14T10:15:35.733Z,2.00
2023-05-14T10:16:35.782Z,2.20
2023-05-14T10:17:35.829Z,2.40
2023-05-14T10:18:35.835Z,2.30
2023-05-14T10:19:35.865Z,2.40
2023-05-14T10:20:35.783Z,2.40
2023-05-14T10:21:35.801Z,2.40
2023-05-14T10:22:35.813Z,2.30
2023-05-14T10:23:35.817Z,2.20
2023-05-14T10:24:35.839Z,2.20
2023-05-14T10:25:35.960Z,2.20
2023-05-14T10:26:35.853Z,2.40
2023-05-14T10:27:35.873Z,2.30
2023-05-14T10:28:35.878Z,2.30
2023-05-14T10:29:35.891Z,2.30
2023-05-14T10:30:36.005Z,2.20
2023-05-14T10:31:35.939Z,2.40
2023-05-14T10:32:35.969Z,2.40
2023-05-14T10:33:35.942Z,2.40
2023-05-14T10:34:35.956Z,2.30
2023-05-14T10:35:35.963Z,2.40
2023-05-14T10:36:36.090Z,2.10
2023-05-14T10:37:35.986Z,2.20
2023-05-14T10:38:36.017Z,2.30
2023-05-14T10:39:36.027Z,2.20
2023-05-14T10:40:36.035Z,2.20
2023-05-14T10:41:36.159Z,2.40
2023-05-14T10:42:36.128Z,2.30
2023-05-14T10:43:36.069Z,2.50
2023-05-14T10:44:36.082Z,2.20
2023-05-14T10:45:36.088Z,2.10
2023-05-14T10:46:36.149Z,2.30
2023-05-14T10:47:36.176Z,2.30
2023-05-14T10:48:36.127Z,2.30
2023-05-14T10:49:43.532Z,2.10
2023-05-14T10:50:36.146Z,2.40
2023-05-14T10:51:36.263Z,2.40
2023-05-14T10:52:36.172Z,2.10
2023-05-14T10:53:36.291Z,2.40
2023-05-14T10:54:36.265Z,2.20
2023-05-14T10:55:36.218Z,2.30
2023-05-14T10:56:36.232Z,2.20
2023-05-14T10:57:36.250Z,2.30
2023-05-14T10:58:36.241Z,2.40
2023-05-14T10:59:36.355Z,2.30
2023-05-14T11:00:36.270Z,2.40
2023-05-14T11:01:36.323Z,2.00
2023-05-14T11:02:36.324Z,2.20
2023-05-14T11:03:36.346Z,2.20
2023-05-14T11:04:36.316Z,2.30
2023-05-14T11:05:36.434Z,2.30
2023-05-14T11:06:36.352Z,2.50
2023-05-14T11:07:36.355Z,2.30
2023-05-14T11:08:36.367Z,2.50
2023-05-14T11:09:36.391Z,2.30
2023-05-14T11:10:36.493Z,2.20
2023-05-14T11:11:36.420Z,2.30
2023-05-14T11:12:36.421Z,2.30
2023-05-14T11:13:36.541Z,2.20
2023-05-14T11:14:36.445Z,2.10
2023-05-14T11:15:36.555Z,2.20
2023-05-14T11:16:36.469Z,2.20
2023-05-14T11:18:36.508Z,2.20
2023-05-14T11:19:36.510Z,2.20
2023-05-14T11:20:36.539Z,2.20
2023-05-14T11:21:36.646Z,2.40
2023-05-14T11:22:36.573Z,2.10
2023-05-14T11:23:36.564Z,2.20
2023-05-14T11:24:36.578Z,2.20
2023-05-14T11:25:36.588Z,2.30
2023-05-14T11:26:36.624Z,2.50
2023-05-14T11:27:36.714Z,2.50
2023-05-14T11:28:36.613Z,2.20
2023-05-14T11:29:36.645Z,2.10
2023-05-14T11:30:36.637Z,2.20
2023-05-14T11:31:36.693Z,2.20
2023-05-14T11:32:36.686Z,2.30
2023-05-14T11:33:36.785Z,2.20
2023-05-14T11:34:36.685Z,2.30
2023-05-14T11:35:36.704Z,2.30
2023-05-14T11:36:36.722Z,2.30
2023-05-14T11:37:36.723Z,2.40
2023-05-14T11:38:36.743Z,2.20
2023-05-14T11:39:36.847Z,2.30
2023-05-14T11:40:36.761Z,2.20
2023-05-14T11:41:36.770Z,2.50
2023-05-14T11:42:36.797Z,2.30
2023-05-14T11:43:36.803Z,2.30
2023-05-14T11:44:36.905Z,2.40
2023-05-14T11:45:36.855Z,2.40
2023-05-14T11:46:36.946Z,2.30
2023-05-14T11:47:36.865Z,2.10
2023-05-14T11:48:36.866Z,2.30
2023-05-14T11:49:36.876Z,2.50
2023-05-14T11:50:36.981Z,2.30
2023-05-14T11:51:36.903Z,2.30
2023-05-14T11:52:36.913Z,2.30
2023-05-14T11:53:36.917Z,2.10
2023-05-14T11:54:36.937Z,2.30
2023-05-14T11:55:36.950Z,2.40
2023-05-14T11:56:37.058Z,2.20
2023-05-14T11:57:36.970Z,2.30
2023-05-14T11:58:36.977Z,2.40
2023-05-14T11:59:36.995Z,2.60
2023-05-14T12:00:37.004Z,2.10
2023-05-14T12:01:37.045Z,2.30
2023-05-14T12:02:37.096Z,2.20
2023-05-14T12:03:37.325Z,2.30
2023-05-14T12:04:37.131Z,2.20
2023-05-14T12:05:37.067Z,2.30
2023-05-14T12:06:37.070Z,2.10
2023-05-14T12:07:37.198Z,2.30
2023-05-14T12:08:37.102Z,2.20
2023-05-14T12:09:37.109Z,2.20
2023-05-14T12:10:37.118Z,2.30
2023-05-14T12:11:37.133Z,2.30
2023-05-14T12:12:37.459Z,2.10
2023-05-14T12:13:37.160Z,2.30
2023-05-14T12:14:37.169Z,2.40
2023-05-14T12:15:37.181Z,2.40
2023-05-14T12:16:38.424Z,2.30
2023-05-14T12:17:37.236Z,2.50
2023-05-14T12:18:37.486Z,2.30
2023-05-14T12:19:37.238Z,2.40
2023-05-14T12:20:37.246Z,2.40
2023-05-14T12:21:37.272Z,2.30
2023-05-14T12:22:37.280Z,2.20
2023-05-14T12:23:37.278Z,2.50
2023-05-14T12:24:37.397Z,2.10
2023-05-14T12:25:37.317Z,2.30
2023-05-14T12:26:37.323Z,2.40
2023-05-14T12:27:37.337Z,2.20
2023-05-14T12:28:38.556Z,2.40
2023-05-14T12:29:37.365Z,2.50
2023-05-14T12:30:37.513Z,2.40
2023-05-14T12:31:37.419Z,2.20
2023-05-14T12:32:37.465Z,2.50
2023-05-14T12:33:37.424Z,2.50
2023-05-14T12:34:37.764Z,2.10
2023-05-14T12:35:37.535Z,2.20
2023-05-14T12:36:37.450Z,2.10
2023-05-14T12:37:37.552Z,2.20
2023-05-14T12:38:37.465Z,2.20
2023-05-14T12:39:37.487Z,2.30
2023-05-14T12:40:37.496Z,2.20
2023-05-14T12:41:37.614Z,2.20
2023-05-14T12:42:37.571Z,2.10
2023-05-14T12:43:37.529Z,2.40
2023-05-14T12:44:37.546Z,2.20
2023-05-14T12:45:37.561Z,2.50
2023-05-14T12:46:37.573Z,2.40
2023-05-14T12:47:37.719Z,2.30
2023-05-14T12:48:37.596Z,2.20
2023-05-14T12:49:37.618Z,2.40
2023-05-14T12:50:37.612Z,2.30
2023-05-14T12:51:37.636Z,2.30
2023-05-14T12:52:39.666Z,2.40
2023-05-14T12:53:37.657Z,2.20
2023-05-14T12:54:37.663Z,2.10
2023-05-14T12:55:37.683Z,2.30
2023-05-14T12:56:37.688Z,2.10
2023-05-14T12:57:37.805Z,2.20
2023-05-14T12:58:37.714Z,2.40
2023-05-14T12:59:37.721Z,2.30
2023-05-14T13:00:37.776Z,2.40
2023-05-14T13:01:37.826Z,2.50
2023-05-14T13:02:42.155Z,2.40
2023-05-14T13:03:37.880Z,2.60
2023-05-14T13:04:37.804Z,2.30
2023-05-14T13:05:37.845Z,2.30
2023-05-14T13:06:37.825Z,2.50
2023-05-14T13:07:37.839Z,2.30
2023-05-14T13:08:37.933Z,2.20
2023-05-14T13:09:37.854Z,2.30
2023-05-14T13:10:37.865Z,2.20
2023-05-14T13:11:37.868Z,2.30
2023-05-14T13:12:37.883Z,2.60
2023-05-14T13:13:37.898Z,2.40
2023-05-14T13:14:37.916Z,2.40
2023-05-14T13:15:37.929Z,2.50
2023-05-14T13:16:37.941Z,2.20
2023-05-14T13:17:37.998Z,2.30
2023-05-14T13:18:37.990Z,2.40
2023-05-14T13:19:37.970Z,2.50